Bahia Uno — ECFT — position and weather

sailwx.info

Track history (hours):
 
Tides and Currents Weather Stations Pressure Air Temp Water Temp Dewpoint Dewpoint Depression Visibility Wind Speed Wind Dir Waves Ship Positions

Bahia Uno

Last reported at 2017-Aug-15 21:43 UTC. Time now 2017-Aug-17 09:49 UTC.
Position N 36°09' W 005°26'.

Length 70 m; draft 5.5 m.

Type: Ship. MMSI: 224127820.

Date/timePositionNaut miles runAvg speedWind from/ knotsBaromVisibWave heightAir tempDewpointWater temp
2017-Aug-15 21:43N 36°09' W 005°26'1 4.8
2017-Aug-15 21:29N 36°09' W 005°25'  
2017-Aug-12 17:49N 36°08' W 005°26'0 0.1
2017-Aug-12 11:12N 36°09' W 005°26'  
2017-Aug-09 21:58N 36°08' W 005°26'3 1.6
2017-Aug-09 20:04N 36°10' W 005°23'0 0.0
2017-Aug-09 19:51N 36°10' W 005°23'0 0.0
2017-Aug-09 19:29N 36°10' W 005°23'3 1.5
2017-Aug-09 17:49N 36°09' W 005°26'1 0.0
2017-Aug-09 00:29N 36°08' W 005°26'0 0.0
2017-Aug-08 23:58N 36°08' W 005°26'0 0.0
2017-Aug-08 23:23N 36°08' W 005°26'0 0.0
2017-Aug-08 22:53N 36°08' W 005°26'0 0.0
2017-Aug-08 22:19N 36°08' W 005°26'0 0.0
2017-Aug-08 20:57N 36°08' W 005°26'2 0.8
2017-Aug-08 18:11N 36°06' W 005°25'0 0.0
2017-Aug-08 16:23N 36°06' W 005°25'0 0.3
2017-Aug-08 16:00N 36°06' W 005°25'1 1.0
2017-Aug-08 15:16N 36°07' W 005°25'2 5.9
2017-Aug-08 15:00N 36°08' W 005°25'0 0.9
2017-Aug-08 14:29N 36°08' W 005°26'0 0.0
2017-Aug-08 11:18N 36°08' W 005°26'1 2.0
2017-Aug-08 10:59N 36°08' W 005°25'0 0.4
2017-Aug-08 10:29N 36°08' W 005°25'1 0.4
2017-Aug-08 09:08N 36°08' W 005°26'0 0.0
2017-Aug-08 08:52N 36°08' W 005°26'0 0.0
2017-Aug-08 08:30N 36°08' W 005°26'0 0.0
2017-Aug-08 07:49N 36°08' W 005°26'0 0.0
2017-Aug-08 03:31N 36°08' W 005°26'0 0.0
2017-Aug-08 03:29N 36°08' W 005°26'0 0.0
2017-Aug-08 02:57N 36°08' W 005°26'0 0.0
2017-Aug-08 02:00N 36°08' W 005°26'0 0.0
2017-Aug-08 01:30N 36°08' W 005°26'0 0.0
2017-Aug-07 23:48N 36°08' W 005°26'0 0.0
2017-Aug-07 23:30N 36°08' W 005°26'0 0.0
2017-Aug-07 21:25N 36°08' W 005°26'0 0.0
2017-Aug-07 20:11N 36°08' W 005°26'1 0.2
2017-Aug-07 17:08N 36°09' W 005°26'1 3.9
2017-Aug-07 16:55N 36°08' W 005°25'1 0.0
2017-Aug-07 01:06N 36°08' W 005°26'2 0.3
2017-Aug-06 17:16N 36°06' W 005°24'0 0.6
2017-Aug-06 16:56N 36°06' W 005°24'0 0.2
2017-Aug-06 16:30N 36°06' W 005°24'0 0.0
2017-Aug-06 15:58N 36°06' W 005°24'0 0.0
2017-Aug-06 15:30N 36°06' W 005°24'0 0.1
2017-Aug-06 13:43N 36°06' W 005°24'1 3.7
2017-Aug-06 13:29N 36°07' W 005°24'3 2.7
2017-Aug-06 12:27N 36°10' W 005°24'0 0.1
2017-Aug-06 12:00N 36°10' W 005°24'3 0.6
2017-Aug-06 07:43N 36°08' W 005°26'0 0.0
2017-Aug-06 07:30N 36°08' W 005°26'0 0.0
2017-Aug-06 07:00N 36°08' W 005°26'0 0.0
2017-Aug-06 06:30N 36°08' W 005°26'0 0.0
2017-Aug-06 06:00N 36°08' W 005°26'0 0.0
2017-Aug-06 05:23N 36°08' W 005°26'0 0.0
2017-Aug-06 05:00N 36°08' W 005°26'0 0.0
2017-Aug-06 04:30N 36°08' W 005°26'0 0.0
2017-Aug-06 04:00N 36°08' W 005°26'0 0.0
2017-Aug-06 02:55N 36°08' W 005°26'0 0.0
2017-Aug-06 02:28N 36°08' W 005°26'0 0.0
2017-Aug-06 02:00N 36°08' W 005°26'0 0.0
2017-Aug-06 01:30N 36°08' W 005°26'0 0.0
2017-Aug-06 01:00N 36°08' W 005°26'0 0.0
2017-Aug-06 00:30N 36°08' W 005°26'0 0.0
2017-Aug-06 00:00N 36°08' W 005°26'0 0.0
2017-Aug-05 23:30N 36°08' W 005°26'0 0.0
2017-Aug-05 22:34N 36°08' W 005°26'0 0.0
2017-Aug-05 22:13N 36°08' W 005°26'0 0.0
2017-Aug-05 22:00N 36°08' W 005°26'  
Track history (hours):
 
Tides and Currents Weather Stations Pressure Air Temp Water Temp Dewpoint Dewpoint Depression Visibility Wind Speed Wind Dir Waves Ship Positions

Bahia Uno

Last reported at 2017-Aug-15 21:43 UTC. Time now 2017-Aug-17 09:49 UTC.
Position N 36°09' W 005°26'.

Length 70 m; draft 5.5 m.

Type: Ship. MMSI: 224127820.

Date/timePositionNaut miles runAvg speedWind from/ knotsBaromVisibWave heightAir tempDewpointWater temp
2017-Aug-15 21:43N 36°09' W 005°26'1 4.8
2017-Aug-15 21:29N 36°09' W 005°25'  
2017-Aug-12 17:49N 36°08' W 005°26'0 0.1
2017-Aug-12 11:12N 36°09' W 005°26'  
2017-Aug-09 21:58N 36°08' W 005°26'3 1.6
2017-Aug-09 20:04N 36°10' W 005°23'0 0.0
2017-Aug-09 19:51N 36°10' W 005°23'0 0.0
2017-Aug-09 19:29N 36°10' W 005°23'3 1.5
2017-Aug-09 17:49N 36°09' W 005°26'1 0.0
2017-Aug-09 00:29N 36°08' W 005°26'0 0.0
2017-Aug-08 23:58N 36°08' W 005°26'0 0.0
2017-Aug-08 23:23N 36°08' W 005°26'0 0.0
2017-Aug-08 22:53N 36°08' W 005°26'0 0.0
2017-Aug-08 22:19N 36°08' W 005°26'0 0.0
2017-Aug-08 20:57N 36°08' W 005°26'2 0.8
2017-Aug-08 18:11N 36°06' W 005°25'0 0.0
2017-Aug-08 16:23N 36°06' W 005°25'0 0.3
2017-Aug-08 16:00N 36°06' W 005°25'1 1.0
2017-Aug-08 15:16N 36°07' W 005°25'2 5.9
2017-Aug-08 15:00N 36°08' W 005°25'0 0.9
2017-Aug-08 14:29N 36°08' W 005°26'0 0.0
2017-Aug-08 11:18N 36°08' W 005°26'1 2.0
2017-Aug-08 10:59N 36°08' W 005°25'0 0.4
2017-Aug-08 10:29N 36°08' W 005°25'1 0.4
2017-Aug-08 09:08N 36°08' W 005°26'0 0.0
2017-Aug-08 08:52N 36°08' W 005°26'0 0.0
2017-Aug-08 08:30N 36°08' W 005°26'0 0.0
2017-Aug-08 07:49N 36°08' W 005°26'0 0.0
2017-Aug-08 03:31N 36°08' W 005°26'0 0.0
2017-Aug-08 03:29N 36°08' W 005°26'0 0.0
2017-Aug-08 02:57N 36°08' W 005°26'0 0.0
2017-Aug-08 02:00N 36°08' W 005°26'0 0.0
2017-Aug-08 01:30N 36°08' W 005°26'0 0.0
2017-Aug-07 23:48N 36°08' W 005°26'0 0.0
2017-Aug-07 23:30N 36°08' W 005°26'0 0.0
2017-Aug-07 21:25N 36°08' W 005°26'0 0.0
2017-Aug-07 20:11N 36°08' W 005°26'1 0.2
2017-Aug-07 17:08N 36°09' W 005°26'1 3.9
2017-Aug-07 16:55N 36°08' W 005°25'1 0.0
2017-Aug-07 01:06N 36°08' W 005°26'2 0.3
2017-Aug-06 17:16N 36°06' W 005°24'0 0.6
2017-Aug-06 16:56N 36°06' W 005°24'0 0.2
2017-Aug-06 16:30N 36°06' W 005°24'0 0.0
2017-Aug-06 15:58N 36°06' W 005°24'0 0.0
2017-Aug-06 15:30N 36°06' W 005°24'0 0.1
2017-Aug-06 13:43N 36°06' W 005°24'1 3.7
2017-Aug-06 13:29N 36°07' W 005°24'3 2.7
2017-Aug-06 12:27N 36°10' W 005°24'0 0.1
2017-Aug-06 12:00N 36°10' W 005°24'3 0.6
2017-Aug-06 07:43N 36°08' W 005°26'0 0.0
2017-Aug-06 07:30N 36°08' W 005°26'0 0.0
2017-Aug-06 07:00N 36°08' W 005°26'0 0.0
2017-Aug-06 06:30N 36°08' W 005°26'0 0.0
2017-Aug-06 06:00N 36°08' W 005°26'0 0.0
2017-Aug-06 05:23N 36°08' W 005°26'0 0.0
2017-Aug-06 05:00N 36°08' W 005°26'0 0.0
2017-Aug-06 04:30N 36°08' W 005°26'0 0.0
2017-Aug-06 04:00N 36°08' W 005°26'0 0.0
2017-Aug-06 02:55N 36°08' W 005°26'0 0.0
2017-Aug-06 02:28N 36°08' W 005°26'0 0.0
2017-Aug-06 02:00N 36°08' W 005°26'0 0.0
2017-Aug-06 01:30N 36°08' W 005°26'0 0.0
2017-Aug-06 01:00N 36°08' W 005°26'0 0.0
2017-Aug-06 00:30N 36°08' W 005°26'0 0.0
2017-Aug-06 00:00N 36°08' W 005°26'0 0.0
2017-Aug-05 23:30N 36°08' W 005°26'0 0.0
2017-Aug-05 22:34N 36°08' W 005°26'0 0.0
2017-Aug-05 22:13N 36°08' W 005°26'0 0.0
2017-Aug-05 22:00N 36°08' W 005°26'  

Dump ship's entire track history